Time;durP1;ratioP1;P1;durP2;ratioP2;P2;SDS_P1;SDS_P2;PMS_P1;PMS_P2;Temp;Humidity;BMP_temperature;BMP_pressure;BME280_temperature;BME280_humidity;BME280_pressure;Samples;Min_cycle;Max_cycle;Signal;HPM_P1;HPM_P2
2021/07/22 00:00:08;;;;;;;7.13;3.33;;;20.70;76.70;;;;;;5013435;28;20022;-86
2021/07/22 00:02:33;;;;;;;5.82;3.40;;;20.70;76.70;;;;;;5029137;28;20033;-87
2021/07/22 00:04:59;;;;;;;9.65;4.53;;;20.60;76.70;;;;;;5028299;28;20022;-86
2021/07/22 00:07:25;;;;;;;7.05;3.22;;;20.60;76.80;;;;;;5013652;28;20038;-86
2021/07/22 00:09:51;;;;;;;6.43;3.35;;;20.60;76.90;;;;;;5029317;28;20342;-86
2021/07/22 00:12:16;;;;;;;8.77;3.67;;;20.60;77.00;;;;;;5012895;28;20025;-85
2021/07/22 00:14:42;;;;;;;7.93;3.72;;;20.60;77.20;;;;;;5014764;28;20014;-85
2021/07/22 00:17:08;;;;;;;6.75;3.45;;;20.60;77.30;;;;;;5047486;28;20523;-85
2021/07/22 00:19:35;;;;;;;8.73;3.47;;;20.50;77.30;;;;;;5032751;28;20021;-85
2021/07/22 00:22:01;;;;;;;9.45;3.70;;;20.50;77.50;;;;;;5048073;28;20024;-86
2021/07/22 00:24:27;;;;;;;8.95;3.95;;;20.50;77.50;;;;;;5033380;28;20022;-87
2021/07/22 00:26:54;;;;;;;8.65;3.72;;;20.50;77.80;;;;;;5033423;28;20030;-86
2021/07/22 00:29:20;;;;;;;8.82;3.75;;;20.40;77.80;;;;;;5031652;28;20108;-86
2021/07/22 00:31:46;;;;;;;10.00;4.22;;;20.40;77.90;;;;;;5032083;28;20048;-87
2021/07/22 00:34:12;;;;;;;7.82;3.97;;;20.40;78.00;;;;;;5032307;28;20468;-86
2021/07/22 00:36:38;;;;;;;9.15;4.22;;;20.40;78.00;;;;;;5048756;28;20025;-87
2021/07/22 00:39:04;;;;;;;8.20;4.13;;;20.40;78.20;;;;;;5048216;28;20018;-86
2021/07/22 00:41:30;;;;;;;6.60;3.58;;;20.30;78.20;;;;;;5048342;28;20021;-86
2021/07/22 00:43:56;;;;;;;8.77;4.30;;;20.30;78.20;;;;;;5048132;28;20071;-82
2021/07/22 00:46:22;;;;;;;17.23;4.18;;;20.30;78.30;;;;;;5048221;28;20032;-86
2021/07/22 00:48:48;;;;;;;8.85;4.07;;;20.40;78.30;;;;;;5031929;28;20017;-87
2021/07/22 00:51:15;;;;;;;8.07;3.78;;;20.30;78.40;;;;;;5030675;28;20493;-85
2021/07/22 00:53:40;;;;;;;10.48;4.25;;;20.30;78.60;;;;;;5031416;28;20091;-85
2021/07/22 00:56:06;;;;;;;9.82;4.35;;;20.30;78.80;;;;;;5032143;28;20488;-85
2021/07/22 00:58:32;;;;;;;9.02;4.22;;;20.30;78.80;;;;;;5032944;28;20028;-85
2021/07/22 01:00:58;;;;;;;9.95;4.47;;;20.30;78.90;;;;;;5032544;28;20345;-84
2021/07/22 01:03:24;;;;;;;9.88;4.45;;;20.30;79.10;;;;;;5032697;28;20021;-85
2021/07/22 01:05:49;;;;;;;9.13;4.07;;;20.30;79.20;;;;;;5032664;28;20025;-85
2021/07/22 01:08:15;;;;;;;10.32;4.93;;;20.30;79.40;;;;;;5031983;28;20022;-85
2021/07/22 01:10:41;;;;;;;8.18;4.28;;;20.20;79.40;;;;;;5063188;28;20021;-85
2021/07/22 01:13:06;;;;;;;9.95;4.65;;;20.20;79.60;;;;;;5053832;28;20024;-84
2021/07/22 01:15:32;;;;;;;10.07;4.15;;;20.20;79.70;;;;;;5053923;28;20041;-86
2021/07/22 01:17:58;;;;;;;11.63;4.35;;;20.20;79.90;;;;;;5034818;28;20022;-86
2021/07/22 01:20:28;;;;;;;8.57;4.28;;;20.10;80.00;;;;;;5031759;28;20021;-86
2021/07/22 01:22:55;;;;;;;9.18;3.85;;;20.10;80.20;;;;;;5031529;28;20017;-85
2021/07/22 01:25:22;;;;;;;8.73;4.10;;;20.10;80.30;;;;;;5031910;28;20045;-85
2021/07/22 01:27:49;;;;;;;8.43;4.00;;;20.10;80.40;;;;;;5032441;28;20112;-85
2021/07/22 01:30:15;;;;;;;7.13;4.03;;;20.00;80.50;;;;;;5047373;28;20029;-85
2021/07/22 01:32:42;;;;;;;9.15;4.57;;;20.00;80.60;;;;;;5031158;28;20017;-85
2021/07/22 01:35:10;;;;;;;11.00;4.82;;;20.00;80.60;;;;;;5031795;28;20529;-85
2021/07/22 01:37:38;;;;;;;9.38;4.47;;;20.00;80.60;;;;;;5047774;28;20029;-86
2021/07/22 01:40:04;;;;;;;8.98;4.10;;;20.00;80.80;;;;;;5033493;28;20024;-85
2021/07/22 01:42:31;;;;;;;9.77;4.55;;;20.00;80.80;;;;;;5051597;28;20018;-85
2021/07/22 01:44:56;;;;;;;8.85;4.18;;;20.00;80.90;;;;;;5051771;28;20025;-86
2021/07/22 01:47:22;;;;;;;9.20;4.53;;;20.00;81.10;;;;;;5035405;28;20446;-85
2021/07/22 01:49:48;;;;;;;8.40;4.22;;;19.90;81.00;;;;;;5035940;28;20353;-85
2021/07/22 01:52:14;;;;;;;11.38;5.00;;;19.90;81.20;;;;;;5033378;28;20037;-85
2021/07/22 01:54:40;;;;;;;8.27;4.05;;;19.90;81.30;;;;;;5051681;28;20030;-85
2021/07/22 01:57:05;;;;;;;11.30;4.90;;;19.90;81.40;;;;;;5034727;28;20021;-84
2021/07/22 01:59:37;;;;;;;8.68;4.30;;;19.80;81.50;;;;;;5035850;28;20109;-86
2021/07/22 02:02:04;;;;;;;12.13;5.07;;;19.80;81.50;;;;;;5035199;28;20126;-84
2021/07/22 02:04:32;;;;;;;9.63;5.07;;;19.80;81.60;;;;;;5035966;28;20030;-86
2021/07/22 02:06:58;;;;;;;9.18;4.45;;;19.80;81.80;;;;;;5034524;28;20041;-86
2021/07/22 02:09:24;;;;;;;9.02;4.30;;;19.80;81.80;;;;;;5035180;28;20018;-85
2021/07/22 02:11:54;;;;;;;11.38;5.30;;;19.80;81.90;;;;;;5051118;28;20369;-84
2021/07/22 02:14:21;;;;;;;9.25;4.13;;;19.70;81.90;;;;;;5050353;28;20020;-85
2021/07/22 02:16:47;;;;;;;9.40;4.70;;;19.70;82.00;;;;;;5035507;28;20449;-85
2021/07/22 02:19:12;;;;;;;8.77;4.93;;;19.80;82.10;;;;;;5035182;28;20028;-85
2021/07/22 02:21:41;;;;;;;11.93;5.03;;;19.80;82.10;;;;;;5035674;28;20121;-86
2021/07/22 02:24:08;;;;;;;9.20;4.15;;;19.80;82.00;;;;;;5050192;28;20022;-84
2021/07/22 02:26:34;;;;;;;10.48;4.25;;;19.80;82.50;;;;;;5034951;28;20516;-86
2021/07/22 02:29:01;;;;;;;10.23;5.30;;;19.80;81.80;;;;;;5034149;28;20044;-84
2021/07/22 02:31:27;;;;;;;8.10;4.30;;;19.80;81.90;;;;;;5033517;28;20116;-85
2021/07/22 02:33:53;;;;;;;11.95;4.97;;;19.80;81.90;;;;;;5035037;28;20120;-85
2021/07/22 02:36:19;;;;;;;9.85;4.63;;;19.80;81.90;;;;;;5049865;28;20062;-85
2021/07/22 02:38:45;;;;;;;9.40;4.78;;;19.80;82.00;;;;;;5050600;28;20017;-84
2021/07/22 02:41:11;;;;;;;10.18;4.93;;;19.80;82.20;;;;;;5034466;28;20074;-85
2021/07/22 02:43:36;;;;;;;11.02;4.85;;;19.70;82.40;;;;;;5033815;28;20025;-85
2021/07/22 02:46:08;;;;;;;9.25;4.53;;;19.70;82.60;;;;;;5034759;28;20021;-85
2021/07/22 02:48:35;;;;;;;9.52;5.07;;;19.70;82.80;;;;;;5050181;28;20384;-84
2021/07/22 02:51:01;;;;;;;11.20;5.45;;;19.60;82.80;;;;;;5033633;28;20046;-85
2021/07/22 02:53:30;;;;;;;10.85;4.85;;;19.60;82.90;;;;;;5034015;28;20053;-85
2021/07/22 02:55:59;;;;;;;10.73;4.90;;;19.60;83.10;;;;;;5033430;28;20025;-86
2021/07/22 02:58:28;;;;;;;10.13;4.97;;;19.60;83.20;;;;;;5033013;28;20333;-85
2021/07/22 03:00:54;;;;;;;8.00;4.63;;;19.50;83.20;;;;;;5034685;28;20022;-86
2021/07/22 03:03:20;;;;;;;10.73;4.68;;;19.50;83.30;;;;;;5049500;28;20434;-86
2021/07/22 03:05:46;;;;;;;12.60;5.38;;;19.50;83.40;;;;;;5034785;28;20075;-85
2021/07/22 03:08:11;;;;;;;9.55;4.40;;;19.50;83.50;;;;;;5049219;28;20458;-85
2021/07/22 03:10:37;;;;;;;10.68;5.28;;;19.40;83.60;;;;;;5033428;28;20064;-85
2021/07/22 03:13:03;;;;;;;10.38;5.38;;;19.40;83.70;;;;;;5034364;28;20449;-85
2021/07/22 03:15:30;;;;;;;12.43;5.40;;;19.30;83.60;;;;;;5049147;28;20024;-86
2021/07/22 03:17:56;;;;;;;13.25;5.18;;;19.30;83.80;;;;;;5050030;28;20028;-86
2021/07/22 03:20:22;;;;;;;10.20;5.13;;;19.40;83.90;;;;;;5049221;28;20364;-85
2021/07/22 03:22:47;;;;;;;10.85;4.90;;;19.40;83.90;;;;;;5034121;28;20029;-86
2021/07/22 03:25:13;;;;;;;10.68;4.45;;;19.40;83.90;;;;;;5049213;28;20025;-86
2021/07/22 03:27:39;;;;;;;12.18;4.95;;;19.30;83.90;;;;;;5049757;28;20026;-85
2021/07/22 03:30:05;;;;;;;10.55;4.85;;;19.30;83.90;;;;;;5049834;28;20446;-85
2021/07/22 03:32:31;;;;;;;8.95;4.72;;;19.30;84.10;;;;;;5049182;28;20100;-86
2021/07/22 03:34:57;;;;;;;11.52;5.53;;;19.20;84.10;;;;;;5033046;28;20515;-86
2021/07/22 03:37:23;;;;;;;12.73;5.50;;;19.20;84.30;;;;;;5034634;28;20021;-86
2021/07/22 03:39:48;;;;;;;11.63;4.82;;;19.20;84.30;;;;;;5034386;28;20029;-86
2021/07/22 03:42:14;;;;;;;9.18;4.50;;;19.20;84.30;;;;;;5033577;28;20052;-85
2021/07/22 03:44:40;;;;;;;10.90;5.28;;;19.20;84.40;;;;;;5034073;28;20505;-85
2021/07/22 03:47:05;;;;;;;10.68;5.07;;;19.20;84.30;;;;;;5032788;28;20030;-86
2021/07/22 03:49:33;;;;;;;10.25;5.57;;;19.20;84.30;;;;;;5033795;28;20176;-85
2021/07/22 03:51:58;;;;;;;11.73;5.43;;;19.20;84.20;;;;;;5048998;28;20041;-85
2021/07/22 03:54:24;;;;;;;11.13;5.80;;;19.20;84.30;;;;;;5033227;28;20471;-86
2021/07/22 03:56:50;;;;;;;11.75;4.75;;;19.20;84.30;;;;;;5049565;28;20033;-86
2021/07/22 03:59:16;;;;;;;13.27;5.85;;;19.20;84.20;;;;;;5033456;28;20104;-86
2021/07/22 04:01:42;;;;;;;12.25;5.22;;;19.20;84.20;;;;;;5032449;28;20028;-86
2021/07/22 04:04:09;;;;;;;13.23;5.63;;;19.20;84.10;;;;;;5026110;28;20017;-85
2021/07/22 04:06:40;;;;;;;11.27;5.10;;;19.20;84.20;;;;;;5017746;28;20030;-86
2021/07/22 04:09:06;;;;;;;13.07;5.95;;;19.20;84.30;;;;;;5033386;28;20014;-85
2021/07/22 04:11:35;;;;;;;13.25;5.97;;;19.20;84.30;;;;;;5032683;28;20025;-85
2021/07/22 04:14:00;;;;;;;11.68;5.00;;;19.10;84.30;;;;;;5033330;28;20017;-85
2021/07/22 04:16:26;;;;;;;9.98;5.43;;;19.10;85.00;;;;;;5032798;28;20036;-86
2021/07/22 04:18:51;;;;;;;12.93;5.47;;;19.10;84.50;;;;;;5033259;28;20025;-85
2021/07/22 04:21:17;;;;;;;9.40;5.15;;;19.10;84.60;;;;;;5032516;28;20025;-86
2021/07/22 04:23:43;;;;;;;11.10;5.57;;;19.00;84.50;;;;;;5032999;28;20013;-86
2021/07/22 04:26:15;;;;;;;11.57;5.75;;;19.00;84.70;;;;;;5032124;28;20079;-85
2021/07/22 04:28:41;;;;;;;11.52;5.25;;;19.00;84.90;;;;;;5033049;28;20053;-85
2021/07/22 04:31:07;;;;;;;14.00;5.85;;;19.00;84.90;;;;;;5032958;28;20032;-85
2021/07/22 04:33:32;;;;;;;10.57;5.57;;;19.00;85.00;;;;;;5032140;28;20446;-84
2021/07/22 04:35:58;;;;;;;11.75;5.30;;;19.00;85.00;;;;;;5031907;28;20473;-85
2021/07/22 04:38:24;;;;;;;10.68;5.68;;;19.00;85.00;;;;;;5032526;28;20049;-85
2021/07/22 04:40:49;;;;;;;12.38;5.50;;;19.00;85.00;;;;;;5033385;28;20021;-85
2021/07/22 04:43:15;;;;;;;11.13;5.60;;;19.00;85.00;;;;;;5031219;28;20361;-85
2021/07/22 04:45:41;;;;;;;11.32;6.32;;;19.00;85.00;;;;;;5033274;28;20525;-85
2021/07/22 04:48:06;;;;;;;9.80;5.88;;;19.00;85.00;;;;;;5031599;28;20037;-85
2021/07/22 04:50:32;;;;;;;11.07;5.50;;;19.00;85.00;;;;;;5029855;28;20116;-78
2021/07/22 04:52:59;;;;;;;11.77;5.93;;;19.10;85.00;;;;;;5027769;28;20095;-77
2021/07/22 04:55:25;;;;;;;11.25;5.80;;;19.00;84.90;;;;;;5028044;28;20044;-83
2021/07/22 04:58:00;;;;;;;11.75;5.68;;;19.00;84.90;;;;;;5030368;28;20029;-83
2021/07/22 05:00:26;;;;;;;12.25;6.63;;;19.10;85.20;;;;;;5029201;28;20041;-80
2021/07/22 05:03:00;;;;;;;12.80;5.70;;;19.10;85.20;;;;;;5030101;28;20064;-82
2021/07/22 05:05:27;;;;;;;11.07;5.20;;;19.10;85.20;;;;;;5028982;28;20037;-81
2021/07/22 05:07:53;;;;;;;12.48;6.07;;;19.10;85.20;;;;;;5029946;28;20060;-81
2021/07/22 05:10:18;;;;;;;11.07;5.68;;;19.10;85.20;;;;;;5029527;28;20416;-83
2021/07/22 05:12:44;;;;;;;10.88;5.72;;;19.10;85.30;;;;;;5028645;28;20528;-80
2021/07/22 05:15:11;;;;;;;10.07;5.43;;;19.10;85.40;;;;;;5030749;28;20361;-84
2021/07/22 05:17:37;;;;;;;12.82;5.90;;;19.10;85.50;;;;;;5033139;28;20036;-81
2021/07/22 05:20:03;;;;;;;11.25;6.00;;;19.10;85.50;;;;;;5032266;28;20025;-81
2021/07/22 05:22:29;;;;;;;12.77;5.80;;;19.10;85.50;;;;;;5033121;28;20025;-81
2021/07/22 05:24:54;;;;;;;10.52;5.30;;;19.10;85.40;;;;;;5034293;28;20369;-78
2021/07/22 05:27:20;;;;;;;12.38;6.03;;;19.10;85.40;;;;;;5025928;28;20033;-79
2021/07/22 05:29:46;;;;;;;12.00;5.68;;;19.20;85.40;;;;;;5014203;28;20018;-79
2021/07/22 05:32:15;;;;;;;10.63;5.35;;;19.10;85.40;;;;;;5012464;28;20021;-79
2021/07/22 05:34:41;;;;;;;12.82;5.30;;;19.10;85.40;;;;;;5012315;28;20026;-79
2021/07/22 05:37:13;;;;;;;12.65;6.20;;;19.10;85.40;;;;;;5012853;28;20018;-79
2021/07/22 05:39:38;;;;;;;10.35;5.40;;;19.10;85.50;;;;;;5013564;28;20021;-79
2021/07/22 05:42:04;;;;;;;10.55;5.25;;;19.10;85.60;;;;;;5012974;28;20067;-79
2021/07/22 05:44:30;;;;;;;13.27;6.07;;;19.00;85.60;;;;;;5013147;28;20022;-81
2021/07/22 05:46:55;;;;;;;10.15;5.25;;;19.00;85.80;;;;;;5014872;28;20025;-81
2021/07/22 05:49:21;;;;;;;12.43;5.82;;;19.00;85.80;;;;;;5014112;28;20025;-82
2021/07/22 05:51:47;;;;;;;15.43;5.88;;;19.00;85.80;;;;;;5014203;28;20042;-81
2021/07/22 05:54:13;;;;;;;10.18;4.93;;;19.10;85.90;;;;;;5015732;28;20018;-82
2021/07/22 05:56:39;;;;;;;12.20;5.47;;;19.10;85.90;;;;;;5013627;28;20025;-82
2021/07/22 05:59:04;;;;;;;9.93;5.38;;;19.10;85.80;;;;;;5014039;28;20124;-82
2021/07/22 06:01:30;;;;;;;10.48;5.85;;;19.10;85.90;;;;;;5015154;28;20041;-83
2021/07/22 06:03:56;;;;;;;12.15;6.25;;;19.10;85.90;;;;;;5014424;28;20018;-82
2021/07/22 06:06:21;;;;;;;11.85;5.68;;;19.10;85.90;;;;;;5014650;28;20029;-81
2021/07/22 06:08:47;;;;;;;13.63;5.60;;;19.10;85.90;;;;;;5015624;28;20425;-81
2021/07/22 06:11:13;;;;;;;10.75;4.88;;;19.10;85.90;;;;;;5014167;28;20462;-81
2021/07/22 06:13:39;;;;;;;14.30;5.82;;;19.20;86.00;;;;;;5013598;28;20352;-82
2021/07/22 06:16:10;;;;;;;12.07;6.20;;;19.20;85.90;;;;;;5014013;28;20018;-82
2021/07/22 06:18:36;;;;;;;10.50;5.60;;;19.20;85.90;;;;;;5013362;28;20022;-81
2021/07/22 06:21:02;;;;;;;14.23;6.25;;;19.20;85.90;;;;;;5014070;28;20403;-82
2021/07/22 06:23:28;;;;;;;11.10;5.50;;;19.20;85.90;;;;;;5014101;28;20033;-82
2021/07/22 06:26:00;;;;;;;11.77;5.93;;;19.30;85.90;;;;;;5015114;28;20113;-82
2021/07/22 06:28:26;;;;;;;10.38;5.35;;;19.30;85.90;;;;;;5015513;28;20033;-81
2021/07/22 06:30:52;;;;;;;10.00;5.78;;;19.30;85.90;;;;;;5025348;28;20512;-82
2021/07/22 06:33:18;;;;;;;11.52;5.53;;;19.30;85.90;;;;;;5024398;28;20516;-80
2021/07/22 06:35:44;;;;;;;10.27;5.25;;;19.30;85.90;;;;;;5022110;28;20056;-82
2021/07/22 06:38:09;;;;;;;11.68;6.00;;;19.40;86.00;;;;;;5017251;28;20026;-82
2021/07/22 06:40:35;;;;;;;12.18;5.53;;;19.40;85.90;;;;;;5013260;28;20072;-81
2021/07/22 06:43:01;;;;;;;12.25;5.43;;;19.40;85.90;;;;;;5015016;28;20043;-82
2021/07/22 06:45:27;;;;;;;10.60;5.32;;;19.40;85.80;;;;;;5013042;28;20024;-82
2021/07/22 06:47:52;;;;;;;13.90;5.68;;;19.50;85.70;;;;;;5013582;28;20474;-82
2021/07/22 06:50:18;;;;;;;9.95;4.95;;;19.50;85.60;;;;;;5013467;28;20335;-82
2021/07/22 06:52:43;;;;;;;10.43;5.07;;;19.60;85.60;;;;;;5012337;28;20417;-82
2021/07/22 06:55:10;;;;;;;10.32;5.18;;;19.60;85.50;;;;;;5029987;28;20509;-83
2021/07/22 06:57:36;;;;;;;9.60;5.40;;;19.70;85.60;;;;;;5014078;28;20018;-82
2021/07/22 07:00:03;;;;;;;15.07;5.28;;;19.70;85.50;;;;;;5013245;28;20024;-82
2021/07/22 07:02:29;;;;;;;10.65;4.72;;;19.70;85.50;;;;;;5012465;28;20068;-82
2021/07/22 07:04:54;;;;;;;11.07;5.15;;;19.80;85.40;;;;;;5012999;28;20026;-83
2021/07/22 07:07:20;;;;;;;11.05;5.30;;;19.80;85.30;;;;;;5013881;28;20072;-82
2021/07/22 07:09:46;;;;;;;8.63;4.95;;;19.90;85.00;;;;;;5013681;28;20043;-83
2021/07/22 07:12:12;;;;;;;10.70;5.45;;;20.10;84.80;;;;;;5012876;28;20056;-82
2021/07/22 07:14:37;;;;;;;9.10;4.97;;;20.20;84.40;;;;;;5012230;28;20029;-81
2021/07/22 07:17:03;;;;;;;9.88;4.55;;;20.30;84.20;;;;;;5012778;28;20117;-82
2021/07/22 07:19:29;;;;;;;11.18;5.72;;;20.40;83.90;;;;;;5012104;28;20014;-82
2021/07/22 07:21:55;;;;;;;10.05;4.95;;;20.50;83.70;;;;;;5012750;28;20473;-82
2021/07/22 07:24:21;;;;;;;8.27;3.80;;;20.50;83.50;;;;;;5012643;28;20052;-82
2021/07/22 07:26:46;;;;;;;10.00;4.60;;;20.50;83.50;;;;;;5013289;28;20040;-82
2021/07/22 07:29:12;;;;;;;9.05;4.95;;;20.60;83.30;;;;;;5014148;28;20459;-82
2021/07/22 07:31:38;;;;;;;12.18;6.05;;;20.60;83.10;;;;;;5013383;28;20045;-82
2021/07/22 07:34:04;;;;;;;10.38;5.38;;;20.70;82.90;;;;;;5014004;28;20018;-82
2021/07/22 07:36:30;;;;;;;10.02;5.22;;;20.80;82.60;;;;;;5011793;28;20535;-81
2021/07/22 07:38:55;;;;;;;8.93;4.90;;;20.80;82.30;;;;;;5013808;28;20088;-82
2021/07/22 07:41:21;;;;;;;9.82;5.15;;;20.80;82.30;;;;;;5014027;28;20430;-82
2021/07/22 07:43:47;;;;;;;9.07;5.13;;;20.80;82.00;;;;;;5011960;28;20112;-82
2021/07/22 07:46:12;;;;;;;9.68;4.88;;;20.90;81.90;;;;;;5013369;28;20120;-82
2021/07/22 07:48:38;;;;;;;9.63;5.38;;;20.90;81.80;;;;;;5012996;28;20048;-82
2021/07/22 07:51:08;;;;;;;11.38;5.47;;;20.90;81.80;;;;;;5013436;28;20087;-82
2021/07/22 07:53:34;;;;;;;12.17;5.97;;;20.90;81.70;;;;;;5012987;28;20025;-82
2021/07/22 07:56:00;;;;;;;11.73;6.15;;;21.00;81.70;;;;;;5012442;28;20409;-82
2021/07/22 07:58:25;;;;;;;9.68;5.93;;;21.00;81.70;;;;;;5011907;28;20483;-82
2021/07/22 08:00:51;;;;;;;11.75;6.75;;;20.90;81.70;;;;;;5011417;28;20018;-82
2021/07/22 08:03:21;;;;;;;11.80;6.63;;;21.00;81.80;;;;;;5013459;28;20049;-82
2021/07/22 08:05:47;;;;;;;11.98;6.60;;;21.00;81.70;;;;;;5011499;28;20021;-82
2021/07/22 08:08:13;;;;;;;12.18;6.38;;;20.90;81.60;;;;;;5011955;28;20026;-82
2021/07/22 08:10:42;;;;;;;10.88;5.70;;;20.90;81.70;;;;;;5013026;28;20087;-82
2021/07/22 08:13:08;;;;;;;9.60;5.97;;;21.00;81.50;;;;;;5011995;28;20118;-82
2021/07/22 08:15:35;;;;;;;9.82;5.63;;;21.00;81.20;;;;;;5012225;28;20032;-82
2021/07/22 08:18:00;;;;;;;10.18;5.53;;;21.10;80.90;;;;;;5013262;28;20509;-82
2021/07/22 08:20:26;;;;;;;9.68;5.70;;;21.20;80.60;;;;;;5011814;28;20056;-82
2021/07/22 08:22:52;;;;;;;12.43;5.88;;;21.20;80.30;;;;;;5011056;28;20458;-82
2021/07/22 08:25:17;;;;;;;10.35;5.60;;;21.20;80.20;;;;;;5012787;28;20454;-82
2021/07/22 08:27:43;;;;;;;9.38;5.65;;;21.20;80.10;;;;;;5012183;28;20037;-82
2021/07/22 08:30:09;;;;;;;10.32;6.15;;;21.20;80.00;;;;;;5012777;28;20022;-82
2021/07/22 08:32:35;;;;;;;10.70;6.15;;;21.30;79.90;;;;;;5011098;28;20025;-82
2021/07/22 08:35:01;;;;;;;10.32;6.05;;;21.30;79.60;;;;;;5011685;28;20390;-82
2021/07/22 08:37:27;;;;;;;10.48;6.18;;;21.30;79.30;;;;;;5012843;28;20028;-81
2021/07/22 08:39:56;;;;;;;9.10;4.85;;;21.30;79.20;;;;;;5012111;28;20022;-82
2021/07/22 08:42:25;;;;;;;9.70;6.00;;;21.40;78.90;;;;;;5012618;28;20040;-82
2021/07/22 08:44:50;;;;;;;9.23;5.22;;;21.50;78.70;;;;;;5010630;28;20050;-81
2021/07/22 08:47:17;;;;;;;10.35;5.20;;;21.60;78.40;;;;;;5012629;28;20508;-82
2021/07/22 08:49:42;;;;;;;8.65;4.57;;;21.80;78.10;;;;;;5010226;28;20044;-82
2021/07/22 08:52:10;;;;;;;9.65;5.13;;;21.90;77.50;;;;;;5010953;28;20466;-82
2021/07/22 08:54:36;;;;;;;10.98;5.22;;;22.00;76.90;;;;;;5011738;28;20416;-82
2021/07/22 08:57:05;;;;;;;7.38;4.75;;;22.10;76.50;;;;;;5010907;28;20072;-82
2021/07/22 08:59:31;;;;;;;8.27;4.68;;;22.20;76.20;;;;;;5011120;28;20121;-80
2021/07/22 09:01:59;;;;;;;10.35;5.20;;;22.20;76.10;;;;;;5011259;28;20018;-82
2021/07/22 09:04:24;;;;;;;6.82;4.70;;;22.30;76.00;;;;;;5012573;28;20029;-82
2021/07/22 09:06:50;;;;;;;7.80;4.78;;;22.30;75.60;;;;;;5010640;28;20050;-82
2021/07/22 09:09:17;;;;;;;7.90;5.03;;;22.40;75.40;;;;;;5011063;28;20459;-82
2021/07/22 09:11:53;;;;;;;7.07;4.38;;;22.30;75.00;;;;;;5010625;28;20026;-82
2021/07/22 09:14:19;;;;;;;8.02;4.57;;;22.30;75.00;;;;;;5011120;28;20018;-82
2021/07/22 09:16:44;;;;;;;6.60;4.30;;;22.30;75.10;;;;;;5012080;28;20144;-81
2021/07/22 09:19:31;;;;;;;7.95;4.30;;;22.40;75.20;;;;;;5011023;28;20025;-82
2021/07/22 09:21:56;;;;;;;6.45;3.78;;;22.30;74.90;;;;;;5011887;28;20475;-82
2021/07/22 09:24:22;;;;;;;6.35;3.58;;;22.30;74.70;;;;;;5011287;28;20021;-82
2021/07/22 09:26:51;;;;;;;7.55;3.70;;;22.30;74.20;;;;;;5010401;28;20034;-82
2021/07/22 09:29:17;;;;;;;7.30;3.45;;;22.20;73.90;;;;;;5012367;28;20014;-81
2021/07/22 09:31:44;;;;;;;6.45;3.58;;;22.20;73.90;;;;;;5011681;28;20018;-81
2021/07/22 09:34:26;;;;;;;6.63;3.72;;;22.20;73.80;;;;;;5010911;28;20056;-82
2021/07/22 09:36:52;;;;;;;7.38;3.92;;;22.30;73.60;;;;;;5010221;28;20017;-82
2021/07/22 09:39:22;;;;;;;5.45;3.20;;;22.30;73.40;;;;;;5012233;28;20026;-82
2021/07/22 09:41:57;;;;;;;6.20;3.65;;;22.40;73.20;;;;;;5010170;28;20014;-81
2021/07/22 09:44:30;;;;;;;6.30;3.42;;;22.60;72.90;;;;;;5011976;28;20018;-82
2021/07/22 09:46:57;;;;;;;5.60;3.17;;;22.70;72.20;;;;;;5011314;28;20022;-82
2021/07/22 09:49:37;;;;;;;7.05;3.13;;;22.70;72.00;;;;;;5010686;28;20029;-81
2021/07/22 09:52:08;;;;;;;5.93;3.33;;;22.70;71.60;;;;;;5012270;28;20053;-82
2021/07/22 09:54:36;;;;;;;6.95;3.20;;;22.70;71.70;;;;;;5010676;28;20417;-81
2021/07/22 09:57:12;;;;;;;5.80;3.20;;;22.70;71.30;;;;;;5010734;28;20025;-81
2021/07/22 09:59:37;;;;;;;5.55;2.80;;;22.70;71.20;;;;;;5010154;28;20014;-80
2021/07/22 10:02:06;;;;;;;6.93;3.67;;;22.70;71.30;;;;;;5013798;28;20349;-82
2021/07/22 10:04:34;;;;;;;6.22;3.80;;;22.70;71.10;;;;;;5015818;28;20438;-82
2021/07/22 10:07:02;;;;;;;4.70;2.85;;;22.70;71.00;;;;;;5015115;28;20049;-82
2021/07/22 10:09:33;;;;;;;6.53;3.55;;;22.80;70.90;;;;;;5014339;28;20021;-82
2021/07/22 10:12:01;;;;;;;6.63;3.25;;;23.00;70.60;;;;;;5015155;28;20100;-82
2021/07/22 10:14:28;;;;;;;7.22;3.50;;;23.10;70.40;;;;;;5015150;28;20431;-82
2021/07/22 10:17:14;;;;;;;5.75;3.75;;;23.20;70.00;;;;;;5013377;28;20025;-82
2021/07/22 10:19:39;;;;;;;6.45;3.45;;;23.20;69.60;;;;;;5013500;28;20438;-81
2021/07/22 10:22:06;;;;;;;6.68;3.40;;;23.30;69.60;;;;;;5015755;28;20073;-82
2021/07/22 10:24:32;;;;;;;6.22;3.15;;;23.40;69.20;;;;;;5015556;28;20022;-81
2021/07/22 10:26:58;;;;;;;7.18;3.67;;;23.50;68.90;;;;;;5013280;28;20034;-81
2021/07/22 10:29:25;;;;;;;5.55;3.20;;;23.60;68.80;;;;;;5015272;28;20014;-82
2021/07/22 10:31:51;;;;;;;5.10;2.92;;;23.60;68.80;;;;;;5014441;28;20101;-81
2021/07/22 10:34:19;;;;;;;6.10;3.50;;;23.60;68.70;;;;;;5014999;28;20496;-80
2021/07/22 10:36:45;;;;;;;6.65;3.17;;;23.70;68.50;;;;;;5013164;28;20044;-81
2021/07/22 10:39:13;;;;;;;6.68;3.20;;;23.70;68.10;;;;;;5013713;28;20021;-82
2021/07/22 10:41:40;;;;;;;4.95;2.95;;;23.70;67.90;;;;;;5014357;28;20105;-80
2021/07/22 10:44:06;;;;;;;5.13;2.97;;;23.60;67.80;;;;;;5013759;28;20026;-82
2021/07/22 10:46:54;;;;;;;7.75;3.08;;;23.60;67.80;;;;;;5013184;28;21920;-82
2021/07/22 10:49:35;;;;;;;4.68;2.95;;;23.60;67.80;;;;;;5013644;28;20096;-82
2021/07/22 10:52:01;;;;;;;7.38;3.50;;;23.70;67.80;;;;;;5012334;28;20038;-82
2021/07/22 10:54:44;;;;;;;6.38;3.00;;;23.70;67.70;;;;;;5013532;28;20100;-82
2021/07/22 10:57:28;;;;;;;6.82;2.80;;;23.70;67.70;;;;;;5013306;28;20053;-82
2021/07/22 10:59:57;;;;;;;6.20;3.05;;;23.60;67.80;;;;;;5013689;28;20022;-82
2021/07/22 11:02:43;;;;;;;7.50;2.95;;;23.60;67.60;;;;;;5013264;28;20022;-82
2021/07/22 11:05:10;;;;;;;5.43;3.20;;;23.60;67.60;;;;;;5012795;28;20025;-82
2021/07/22 11:07:36;;;;;;;6.20;3.90;;;23.70;67.50;;;;;;5013039;28;20519;-83
2021/07/22 11:10:02;;;;;;;9.93;3.33;;;23.70;67.30;;;;;;5013905;28;20022;-82
2021/07/22 11:12:42;;;;;;;5.93;3.08;;;23.70;67.30;;;;;;5013389;28;20013;-82
2021/07/22 11:15:15;;;;;;;7.55;3.33;;;23.70;67.30;;;;;;5013725;28;20018;-83
2021/07/22 11:17:43;;;;;;;5.32;3.17;;;23.70;67.20;;;;;;5014679;28;20454;-81
2021/07/22 11:20:21;;;;;;;6.53;3.50;;;23.70;67.20;;;;;;5014738;28;20509;-82
2021/07/22 11:22:48;;;;;;;6.88;3.58;;;23.90;66.90;;;;;;5016034;28;20029;-83
2021/07/22 11:25:14;;;;;;;8.30;3.78;;;24.10;66.70;;;;;;5016590;28;20026;-81
2021/07/22 11:27:49;;;;;;;6.68;3.80;;;24.10;66.20;;;;;;5018285;28;20033;-82
2021/07/22 11:30:19;;;;;;;6.22;3.28;;;24.10;66.20;;;;;;5013756;28;20018;-83
2021/07/22 11:32:45;;;;;;;6.80;3.72;;;24.00;66.20;;;;;;5012198;28;20416;-82
2021/07/22 11:35:12;;;;;;;6.07;3.22;;;24.00;66.30;;;;;;5014025;28;20094;-82
2021/07/22 11:37:39;;;;;;;6.68;3.40;;;24.10;66.20;;;;;;5012891;28;20393;-82
2021/07/22 11:40:13;;;;;;;6.00;3.50;;;24.10;66.10;;;;;;5011763;28;20076;-83
2021/07/22 11:42:49;;;;;;;6.80;3.28;;;24.20;66.20;;;;;;5014174;28;20022;-82
2021/07/22 11:45:14;;;;;;;6.32;3.33;;;24.30;65.90;;;;;;5012435;28;20446;-82
2021/07/22 11:47:40;;;;;;;4.93;2.92;;;24.30;65.50;;;;;;5012328;28;20022;-83
2021/07/22 11:50:06;;;;;;;8.10;3.38;;;24.20;65.60;;;;;;5011833;28;20017;-82
2021/07/22 11:52:32;;;;;;;5.20;2.90;;;24.20;65.30;;;;;;5013599;28;20045;-81
2021/07/22 11:55:12;;;;;;;6.45;3.15;;;24.30;65.10;;;;;;5013076;28;20021;-82
2021/07/22 11:57:41;;;;;;;6.53;3.47;;;24.30;65.00;;;;;;5013866;28;20046;-82
2021/07/22 12:00:21;;;;;;;6.93;3.37;;;24.30;65.00;;;;;;5011959;28;20401;-82
2021/07/22 12:02:53;;;;;;;5.65;3.17;;;24.30;65.10;;;;;;5011487;28;20092;-82
2021/07/22 12:05:23;;;;;;;5.45;2.92;;;24.40;65.00;;;;;;5013593;28;20024;-82
2021/07/22 12:07:50;;;;;;;4.57;2.42;;;24.40;64.60;;;;;;5011407;28;20174;-82
2021/07/22 12:10:27;;;;;;;5.25;2.67;;;24.50;64.40;;;;;;5013452;28;20014;-81
2021/07/22 12:13:08;;;;;;;5.65;2.97;;;24.60;64.00;;;;;;5011194;28;20079;-82
2021/07/22 12:15:36;;;;;;;4.47;2.72;;;24.70;63.80;;;;;;5013079;28;20021;-83
2021/07/22 12:18:02;;;;;;;5.30;3.03;;;24.90;63.50;;;;;;5011206;28;20451;-82
2021/07/22 12:20:28;;;;;;;5.65;3.22;;;25.10;63.10;;;;;;5013236;28;20028;-82
2021/07/22 12:22:53;;;;;;;5.53;3.13;;;25.20;62.80;;;;;;5010917;28;20069;-82
2021/07/22 12:25:19;;;;;;;5.25;2.85;;;25.30;62.40;;;;;;5012160;28;20029;-82
2021/07/22 12:27:54;;;;;;;4.85;2.83;;;25.40;61.80;;;;;;5011712;28;20033;-82
2021/07/22 12:30:22;;;;;;;6.55;3.00;;;25.50;61.70;;;;;;5013303;28;20044;-82
2021/07/22 12:32:50;;;;;;;5.80;3.03;;;25.50;61.50;;;;;;5011156;28;20018;-82
2021/07/22 12:35:31;;;;;;;5.07;2.80;;;25.60;61.20;;;;;;5011791;28;20081;-82
2021/07/22 12:38:02;;;;;;;6.93;2.83;;;25.80;60.90;;;;;;5010763;28;20064;-82
2021/07/22 12:40:37;;;;;;;4.10;2.22;;;25.90;60.30;;;;;;5011574;28;20022;-82
2021/07/22 12:43:04;;;;;;;5.35;2.90;;;25.90;60.20;;;;;;5011992;28;20025;-82